createdAt,value
2023-05-08T00:02:12.354Z,14.30
2023-05-08T00:04:40.720Z,14.20
2023-05-08T00:07:08.714Z,14.20
2023-05-08T00:09:37.594Z,14.10
2023-05-08T00:12:05.609Z,14.10
2023-05-08T00:14:33.652Z,14.10
2023-05-08T00:17:02.357Z,14.10
2023-05-08T00:19:30.693Z,14.10
2023-05-08T00:22:00.917Z,14.10
2023-05-08T00:24:29.043Z,14.10
2023-05-08T00:26:56.750Z,14.10
2023-05-08T00:29:27.336Z,14.10
2023-05-08T00:31:55.183Z,14.10
2023-05-08T00:34:23.291Z,14.10
2023-05-08T00:36:50.986Z,14.00
2023-05-08T00:39:19.051Z,14.00
2023-05-08T00:41:46.738Z,14.00
2023-05-08T00:44:14.845Z,13.90
2023-05-08T00:46:43.517Z,13.90
2023-05-08T00:49:14.437Z,13.90
2023-05-08T00:51:43.673Z,13.90
2023-05-08T00:54:12.249Z,13.80
2023-05-08T00:56:41.147Z,13.80
2023-05-08T00:59:11.479Z,13.80
2023-05-08T01:01:39.898Z,13.80
2023-05-08T01:04:08.308Z,13.80
2023-05-08T01:06:37.254Z,13.70
2023-05-08T01:09:05.357Z,13.70
2023-05-08T01:12:04.646Z,13.70
2023-05-08T01:14:51.305Z,13.70
2023-05-08T01:17:43.385Z,13.70
2023-05-08T01:20:34.080Z,13.70
2023-05-08T01:23:07.701Z,13.70
2023-05-08T01:25:57.429Z,13.70
2023-05-08T01:28:49.463Z,13.70
2023-05-08T01:31:23.210Z,13.60
2023-05-08T01:34:03.269Z,13.60
2023-05-08T01:36:37.688Z,13.50
2023-05-08T01:39:22.677Z,13.50
2023-05-08T01:42:05.945Z,13.50
2023-05-08T01:44:41.541Z,13.40
2023-05-08T01:47:12.275Z,13.40
2023-05-08T01:49:49.309Z,13.40
2023-05-08T01:54:45.596Z,13.30
2023-05-08T01:57:15.849Z,13.30
2023-05-08T01:59:45.835Z,13.20
2023-05-08T02:02:18.169Z,13.20
2023-05-08T02:04:46.938Z,13.20
2023-05-08T02:07:15.368Z,13.20
2023-05-08T02:09:44.804Z,13.10
2023-05-08T02:12:14.332Z,13.10
2023-05-08T02:14:47.247Z,13.10
2023-05-08T02:17:17.360Z,13.10
2023-05-08T02:19:47.374Z,13.00
2023-05-08T02:22:18.005Z,13.00
2023-05-08T02:24:46.593Z,13.00
2023-05-08T02:27:16.095Z,13.00
2023-05-08T02:29:44.364Z,13.00
2023-05-08T02:32:12.909Z,13.00
2023-05-08T02:34:54.977Z,12.90
2023-05-08T02:37:32.139Z,12.90
2023-05-08T02:40:01.783Z,12.90
2023-05-08T02:42:31.162Z,12.90
2023-05-08T02:44:59.874Z,12.90
2023-05-08T02:47:39.908Z,12.90
2023-05-08T02:50:29.413Z,12.80
2023-05-08T02:53:08.169Z,12.80
2023-05-08T02:55:48.934Z,12.80
2023-05-08T02:58:43.569Z,12.80
2023-05-08T03:01:21.890Z,12.80
2023-05-08T03:03:59.517Z,12.70
2023-05-08T03:06:28.591Z,12.70
2023-05-08T03:09:01.636Z,12.70
2023-05-08T03:11:42.305Z,12.70
2023-05-08T03:14:12.752Z,12.70
2023-05-08T03:16:44.937Z,12.70
2023-05-08T03:19:28.439Z,12.70
2023-05-08T03:21:58.109Z,12.60
2023-05-08T03:24:28.489Z,12.60
2023-05-08T03:26:57.169Z,12.60
2023-05-08T03:29:27.277Z,12.60
2023-05-08T03:31:58.580Z,12.60
2023-05-08T03:34:27.268Z,12.50
2023-05-08T03:36:55.555Z,12.50
2023-05-08T03:39:25.426Z,12.40
2023-05-08T03:41:55.530Z,12.40
2023-05-08T03:44:24.508Z,12.40
2023-05-08T03:46:56.358Z,12.40
2023-05-08T03:49:29.612Z,12.30
2023-05-08T03:51:57.896Z,12.30
2023-05-08T03:54:28.654Z,12.30
2023-05-08T03:56:57.001Z,12.30
2023-05-08T03:59:54.766Z,12.30
2023-05-08T04:02:42.561Z,12.30
2023-05-08T04:05:21.061Z,12.30
2023-05-08T04:07:57.172Z,12.30
2023-05-08T04:10:32.218Z,12.30
2023-05-08T04:13:05.886Z,12.30
2023-05-08T04:15:43.881Z,12.30
2023-05-08T04:18:16.673Z,12.30
2023-05-08T04:20:48.285Z,12.30
2023-05-08T04:23:22.282Z,12.30
2023-05-08T04:25:53.377Z,12.30
2023-05-08T04:28:22.471Z,12.30
2023-05-08T04:30:52.389Z,12.30
2023-05-08T04:33:20.376Z,12.30
2023-05-08T04:35:49.537Z,12.30
2023-05-08T04:38:18.508Z,12.30
2023-05-08T04:40:46.888Z,12.30
2023-05-08T04:43:14.887Z,12.40
2023-05-08T04:45:42.990Z,12.40
2023-05-08T04:48:11.008Z,12.40
2023-05-08T04:50:39.328Z,12.40
2023-05-08T04:53:07.077Z,12.50
2023-05-08T04:55:35.795Z,12.50
2023-05-08T04:58:03.941Z,12.50
2023-05-08T05:00:34.297Z,12.50
2023-05-08T05:03:02.131Z,12.50
2023-05-08T05:05:32.669Z,12.60
2023-05-08T05:08:00.694Z,12.60
2023-05-08T05:10:28.939Z,12.60
2023-05-08T05:12:59.529Z,12.60
2023-05-08T05:15:27.992Z,12.60
2023-05-08T05:17:55.955Z,12.60
2023-05-08T05:20:24.017Z,12.70
2023-05-08T05:22:51.835Z,12.80
2023-05-08T05:25:20.048Z,12.80
2023-05-08T05:27:47.837Z,12.90
2023-05-08T05:30:16.300Z,12.90
2023-05-08T05:32:47.080Z,12.90
2023-05-08T05:35:15.337Z,13.00
2023-05-08T05:37:43.282Z,13.00
2023-05-08T05:40:13.396Z,13.10
2023-05-08T05:42:41.648Z,13.10
2023-05-08T05:45:11.038Z,13.10
2023-05-08T05:47:45.968Z,13.20
2023-05-08T05:50:14.449Z,13.20
2023-05-08T05:52:42.309Z,13.20
2023-05-08T05:55:10.528Z,13.20
2023-05-08T05:57:38.587Z,13.20
2023-05-08T06:00:07.988Z,13.20
2023-05-08T06:02:42.542Z,13.20
2023-05-08T06:05:13.373Z,13.30
2023-05-08T06:07:41.481Z,13.30
2023-05-08T06:10:12.112Z,13.40
2023-05-08T06:12:40.023Z,13.50
2023-05-08T06:15:12.022Z,13.50
2023-05-08T06:17:40.225Z,13.60
2023-05-08T06:20:18.747Z,13.70
2023-05-08T06:22:46.661Z,13.80
2023-05-08T06:25:15.135Z,13.90
2023-05-08T06:27:43.372Z,13.90
2023-05-08T06:30:11.968Z,14.00
2023-05-08T06:32:39.838Z,14.10
2023-05-08T06:35:08.632Z,14.30
2023-05-08T06:37:36.386Z,14.30
2023-05-08T06:40:12.250Z,14.40
2023-05-08T06:42:41.389Z,14.50
2023-05-08T06:45:10.231Z,14.60
2023-05-08T06:47:38.316Z,14.70
2023-05-08T06:50:07.033Z,14.90
2023-05-08T06:52:35.168Z,14.90
2023-05-08T06:55:06.413Z,15.00
2023-05-08T06:57:36.670Z,15.10
2023-05-08T07:00:05.018Z,15.20
2023-05-08T07:02:34.478Z,15.20
2023-05-08T07:05:03.423Z,15.40
2023-05-08T07:07:32.368Z,15.50
2023-05-08T07:10:00.470Z,15.80
2023-05-08T07:12:28.217Z,16.00
2023-05-08T07:14:57.906Z,16.20
2023-05-08T07:17:26.885Z,16.30
2023-05-08T07:19:55.169Z,16.40
2023-05-08T07:22:23.077Z,16.40
2023-05-08T07:24:51.382Z,16.30
2023-05-08T07:27:20.112Z,16.20
2023-05-08T07:29:48.270Z,16.10
2023-05-08T07:32:16.147Z,16.00
2023-05-08T07:34:44.252Z,15.90
2023-05-08T07:37:14.431Z,15.90
2023-05-08T07:39:42.469Z,15.90
2023-05-08T07:42:10.195Z,16.00
2023-05-08T07:44:50.932Z,16.00
2023-05-08T07:47:22.414Z,16.00
2023-05-08T07:49:50.578Z,16.00
2023-05-08T07:52:20.801Z,16.10
2023-05-08T07:54:48.884Z,16.10
2023-05-08T07:57:16.610Z,16.10
2023-05-08T07:59:44.696Z,16.00
2023-05-08T08:02:12.577Z,15.90
2023-05-08T08:04:40.885Z,15.80
2023-05-08T08:07:08.596Z,15.80
2023-05-08T08:09:36.655Z,15.80
2023-05-08T08:12:04.793Z,15.70
2023-05-08T08:14:33.101Z,15.60
2023-05-08T08:17:01.303Z,15.60
2023-05-08T08:19:29.484Z,15.60
2023-05-08T08:21:57.371Z,15.70
2023-05-08T08:24:25.726Z,15.70
2023-05-08T08:26:53.493Z,15.70
2023-05-08T08:29:21.534Z,15.80
2023-05-08T08:31:49.327Z,15.80
2023-05-08T08:34:17.423Z,15.70
2023-05-08T08:36:45.819Z,15.60
2023-05-08T08:39:15.307Z,15.70
2023-05-08T08:41:43.258Z,15.60
2023-05-08T08:44:11.467Z,15.60
2023-05-08T08:46:48.893Z,15.70
2023-05-08T08:49:28.122Z,15.70
2023-05-08T08:52:03.064Z,15.80
2023-05-08T08:54:34.951Z,15.80
2023-05-08T08:57:07.170Z,15.80
2023-05-08T08:59:38.760Z,15.90
2023-05-08T09:02:11.764Z,16.10
2023-05-08T09:04:40.022Z,16.20
2023-05-08T09:07:09.109Z,16.30
2023-05-08T09:09:41.185Z,16.40
2023-05-08T09:12:09.387Z,16.50
2023-05-08T09:14:40.001Z,16.60
2023-05-08T09:17:07.963Z,16.80
2023-05-08T09:19:36.885Z,16.90
2023-05-08T09:22:06.940Z,17.00
2023-05-08T09:24:55.047Z,17.10
2023-05-08T09:27:24.622Z,17.20
2023-05-08T09:30:00.920Z,17.10
2023-05-08T09:32:32.644Z,17.10
2023-05-08T09:35:02.077Z,17.00
2023-05-08T09:37:30.501Z,17.00
2023-05-08T09:40:34.167Z,16.90
2023-05-08T09:43:14.056Z,16.90
2023-05-08T09:45:42.784Z,17.00
2023-05-08T09:48:11.507Z,17.00
2023-05-08T09:50:41.484Z,17.00
2023-05-08T09:53:10.046Z,16.90
2023-05-08T09:55:48.409Z,16.90
2023-05-08T09:58:16.279Z,16.80
2023-05-08T10:00:44.586Z,16.70
2023-05-08T10:05:37.446Z,16.80
2023-05-08T10:08:26.979Z,16.80
2023-05-08T10:10:54.937Z,16.80
2023-05-08T10:13:23.037Z,16.80
2023-05-08T10:15:54.837Z,16.80
2023-05-08T10:18:27.470Z,16.80
2023-05-08T10:20:59.055Z,16.80
2023-05-08T10:23:27.134Z,16.80
2023-05-08T10:26:03.799Z,16.90
2023-05-08T10:28:51.398Z,17.00
2023-05-08T10:31:22.267Z,16.90
2023-05-08T10:33:51.686Z,16.80
2023-05-08T10:36:19.850Z,16.80
2023-05-08T10:38:49.854Z,16.70
2023-05-08T10:41:19.530Z,16.70
2023-05-08T10:43:48.487Z,16.60
2023-05-08T10:46:46.893Z,16.60
2023-05-08T10:49:37.205Z,16.70
2023-05-08T10:52:16.668Z,17.00
2023-05-08T10:55:04.563Z,16.90
2023-05-08T10:57:32.433Z,17.00
2023-05-08T11:00:01.004Z,17.10
2023-05-08T11:02:30.392Z,17.20
2023-05-08T11:05:18.144Z,17.30
2023-05-08T11:07:59.939Z,17.40
2023-05-08T11:10:32.982Z,17.60
2023-05-08T11:13:01.852Z,17.60
2023-05-08T11:15:37.794Z,17.70
2023-05-08T11:18:16.342Z,17.70
2023-05-08T11:21:06.489Z,17.70
2023-05-08T11:23:35.471Z,17.70
2023-05-08T11:26:06.782Z,17.60
2023-05-08T11:28:39.128Z,17.60
2023-05-08T11:31:08.758Z,17.60
2023-05-08T11:33:41.255Z,17.60
2023-05-08T11:36:17.235Z,17.50
2023-05-08T11:39:08.896Z,17.50
2023-05-08T11:41:37.124Z,17.40
2023-05-08T11:44:05.038Z,17.50
2023-05-08T11:46:56.145Z,17.50
2023-05-08T11:49:29.064Z,17.60
2023-05-08T11:51:59.632Z,17.60
2023-05-08T11:54:30.878Z,17.60
2023-05-08T11:56:59.815Z,17.50
2023-05-08T11:59:27.683Z,17.50
2023-05-08T12:02:07.870Z,17.40
2023-05-08T12:04:45.506Z,17.30
2023-05-08T12:07:14.017Z,17.20
2023-05-08T12:09:41.981Z,17.20
2023-05-08T12:12:12.435Z,17.30
2023-05-08T12:14:40.340Z,17.30
2023-05-08T12:17:08.582Z,17.20
2023-05-08T12:19:36.603Z,17.20
2023-05-08T12:22:04.785Z,17.10
2023-05-08T12:24:32.678Z,17.00
2023-05-08T12:27:01.044Z,17.00
2023-05-08T12:29:29.070Z,17.00
2023-05-08T12:31:57.480Z,17.00
2023-05-08T12:34:25.572Z,17.10
2023-05-08T12:37:05.892Z,17.20
2023-05-08T12:39:37.716Z,17.20
2023-05-08T12:42:06.078Z,17.30
2023-05-08T12:44:33.989Z,17.30
2023-05-08T12:47:02.294Z,17.20
2023-05-08T12:49:31.861Z,17.10
2023-05-08T12:52:07.272Z,16.90
2023-05-08T12:54:39.971Z,16.90
2023-05-08T12:57:19.229Z,16.80
2023-05-08T12:59:47.205Z,16.70
2023-05-08T13:02:17.489Z,16.60
2023-05-08T13:04:46.031Z,16.50
2023-05-08T13:07:15.639Z,16.50
2023-05-08T13:09:58.224Z,16.60
2023-05-08T13:12:26.754Z,16.70
2023-05-08T13:14:57.186Z,16.90
2023-05-08T13:17:25.404Z,17.00
2023-05-08T13:19:53.210Z,17.00
2023-05-08T13:22:23.217Z,17.10
2023-05-08T13:24:51.043Z,17.10
2023-05-08T13:27:19.397Z,17.10
2023-05-08T13:29:47.349Z,17.20
2023-05-08T13:32:17.732Z,17.40
2023-05-08T13:34:50.471Z,17.50
2023-05-08T13:37:20.611Z,17.50
2023-05-08T13:39:48.388Z,17.50
2023-05-08T13:42:16.415Z,17.50
2023-05-08T13:44:44.182Z,17.60
2023-05-08T13:47:12.483Z,17.60
2023-05-08T13:49:40.325Z,17.70
2023-05-08T13:52:08.381Z,17.80
2023-05-08T13:54:36.230Z,17.90
2023-05-08T13:57:04.550Z,17.80
2023-05-08T13:59:32.767Z,17.70
2023-05-08T14:02:00.979Z,17.70
2023-05-08T14:04:28.898Z,17.60
2023-05-08T14:06:56.928Z,17.60
2023-05-08T14:09:24.678Z,17.50
2023-05-08T14:11:52.833Z,17.40
2023-05-08T14:14:20.631Z,17.30
2023-05-08T14:16:49.113Z,17.20
2023-05-08T14:19:17.454Z,17.10
2023-05-08T14:21:45.674Z,17.20
2023-05-08T14:24:13.501Z,17.30
2023-05-08T14:26:42.772Z,17.40
2023-05-08T14:29:10.680Z,17.50
2023-05-08T14:31:38.948Z,17.60
2023-05-08T14:34:06.937Z,17.50
2023-05-08T14:36:35.069Z,17.50
2023-05-08T14:39:04.032Z,17.40
2023-05-08T14:41:32.579Z,17.50
2023-05-08T14:44:01.291Z,17.60
2023-05-08T14:46:30.238Z,17.60
2023-05-08T14:48:58.127Z,17.60
2023-05-08T14:51:31.717Z,17.60
2023-05-08T14:53:59.834Z,17.60
2023-05-08T14:56:40.407Z,17.60
2023-05-08T14:59:14.676Z,17.60
2023-05-08T15:01:43.249Z,17.50
2023-05-08T15:04:11.950Z,17.40
2023-05-08T15:06:40.466Z,17.40
2023-05-08T15:09:09.710Z,17.40
2023-05-08T15:11:38.262Z,17.40
2023-05-08T15:14:06.415Z,17.40
2023-05-08T15:16:34.832Z,17.40
2023-05-08T15:19:02.847Z,17.40
2023-05-08T15:21:31.205Z,17.30
2023-05-08T15:23:59.006Z,17.30
2023-05-08T15:26:27.098Z,17.20
2023-05-08T15:28:54.961Z,17.10
2023-05-08T15:31:23.203Z,17.10
2023-05-08T15:33:51.041Z,17.00
2023-05-08T15:36:19.030Z,16.90
2023-05-08T15:38:49.361Z,16.90
2023-05-08T15:41:17.574Z,16.90
2023-05-08T15:43:46.513Z,16.90
2023-05-08T15:46:14.749Z,16.80
2023-05-08T15:48:42.506Z,16.60
2023-05-08T15:51:10.673Z,16.50
2023-05-08T15:53:38.924Z,16.40
2023-05-08T15:56:09.889Z,16.30
2023-05-08T15:58:40.733Z,16.30
2023-05-08T16:01:09.202Z,16.30
2023-05-08T16:03:37.209Z,16.20
2023-05-08T16:06:05.557Z,16.20
2023-05-08T16:08:33.512Z,16.10
2023-05-08T16:11:01.861Z,16.00
2023-05-08T16:13:29.940Z,16.00
2023-05-08T16:16:08.278Z,15.90
2023-05-08T16:18:36.199Z,15.80
2023-05-08T16:21:09.515Z,15.70
2023-05-08T16:23:37.697Z,15.60
2023-05-08T16:26:05.773Z,15.60
2023-05-08T16:28:33.638Z,15.60
2023-05-08T16:31:02.944Z,15.60
2023-05-08T16:33:33.110Z,15.60
2023-05-08T16:36:01.171Z,15.50
2023-05-08T16:38:28.870Z,15.50
2023-05-08T16:41:07.561Z,15.50
2023-05-08T16:43:35.421Z,15.50
2023-05-08T16:46:06.909Z,15.50
2023-05-08T16:48:34.853Z,15.40
2023-05-08T16:51:03.347Z,15.40
2023-05-08T16:53:32.620Z,15.40
2023-05-08T16:56:00.906Z,15.40
2023-05-08T16:58:28.843Z,15.40
2023-05-08T17:00:56.898Z,15.40
2023-05-08T17:03:25.060Z,15.30
2023-05-08T17:05:53.523Z,15.30
2023-05-08T17:08:21.488Z,15.30
2023-05-08T17:10:49.494Z,15.40
2023-05-08T17:13:17.294Z,15.40
2023-05-08T17:15:45.551Z,15.40
2023-05-08T17:18:13.449Z,15.30
2023-05-08T17:20:42.516Z,15.30
2023-05-08T17:23:10.341Z,15.20
2023-05-08T17:25:38.905Z,15.20
2023-05-08T17:28:07.427Z,15.10
2023-05-08T17:30:35.758Z,15.10
2023-05-08T17:33:03.832Z,15.10
2023-05-08T17:35:31.973Z,15.10
2023-05-08T17:37:59.783Z,15.20
2023-05-08T17:40:28.894Z,15.20
2023-05-08T17:42:56.776Z,15.20
2023-05-08T17:45:24.869Z,15.20
2023-05-08T17:47:52.905Z,15.20
2023-05-08T17:50:21.168Z,15.10
2023-05-08T17:52:49.016Z,15.10
2023-05-08T17:55:17.207Z,15.10
2023-05-08T17:57:50.628Z,15.10
2023-05-08T18:00:19.167Z,15.00
2023-05-08T18:02:47.120Z,15.00
2023-05-08T18:05:16.429Z,15.00
2023-05-08T18:07:44.252Z,15.00
2023-05-08T18:10:12.793Z,15.00
2023-05-08T18:12:43.230Z,14.90
2023-05-08T18:15:11.698Z,14.90
2023-05-08T18:17:39.520Z,14.90
2023-05-08T18:20:09.667Z,14.90
2023-05-08T18:22:37.624Z,14.90
2023-05-08T18:25:08.271Z,14.90
2023-05-08T18:27:36.155Z,14.80
2023-05-08T18:30:04.911Z,14.90
2023-05-08T18:32:33.218Z,14.80
2023-05-08T18:35:01.365Z,14.90
2023-05-08T18:37:29.291Z,14.80
2023-05-08T18:39:57.373Z,14.80
2023-05-08T18:42:25.206Z,14.80
2023-05-08T18:44:54.987Z,14.80
2023-05-08T18:47:22.793Z,14.80
2023-05-08T18:49:52.569Z,14.80
2023-05-08T18:52:20.291Z,14.70
2023-05-08T18:54:48.237Z,14.70
2023-05-08T18:57:16.014Z,14.70
2023-05-08T18:59:44.192Z,14.70
2023-05-08T19:02:11.941Z,14.60
2023-05-08T19:04:40.554Z,14.70
2023-05-08T19:07:08.391Z,14.70
2023-05-08T19:09:36.468Z,14.70
2023-05-08T19:12:04.395Z,14.70
2023-05-08T19:14:35.384Z,14.70
2023-05-08T19:17:03.345Z,14.70
2023-05-08T19:19:31.584Z,14.60
2023-05-08T19:21:59.667Z,14.60
2023-05-08T19:24:29.969Z,14.60
2023-05-08T19:26:59.096Z,14.60
2023-05-08T19:29:27.231Z,14.60
2023-05-08T19:31:56.595Z,14.60
2023-05-08T19:34:24.913Z,14.60
2023-05-08T19:36:52.957Z,14.60
2023-05-08T19:39:23.647Z,14.60
2023-05-08T19:41:51.458Z,14.50
2023-05-08T19:44:19.415Z,14.50
2023-05-08T19:46:47.161Z,14.50
2023-05-08T19:49:17.342Z,14.50
2023-05-08T19:51:45.160Z,14.50
2023-05-08T19:54:13.436Z,14.50
2023-05-08T19:56:41.189Z,14.50
2023-05-08T19:59:09.327Z,14.50
2023-05-08T20:01:37.785Z,14.50
2023-05-08T20:04:06.050Z,14.50
2023-05-08T20:06:33.866Z,14.50
2023-05-08T20:09:01.916Z,14.50
2023-05-08T20:11:29.702Z,14.50
2023-05-08T20:14:00.215Z,14.50
2023-05-08T20:16:28.054Z,14.50
2023-05-08T20:18:56.208Z,14.50
2023-05-08T20:21:26.670Z,14.50
2023-05-08T20:23:54.647Z,14.50
2023-05-08T20:26:23.370Z,14.50
2023-05-08T20:28:51.553Z,14.50
2023-05-08T20:31:19.354Z,14.40
2023-05-08T20:33:47.423Z,14.40
2023-05-08T20:36:15.181Z,14.40
2023-05-08T20:38:43.283Z,14.40
2023-05-08T20:41:11.318Z,14.30
2023-05-08T20:43:39.713Z,14.40
2023-05-08T20:46:10.104Z,14.40
2023-05-08T20:48:38.564Z,14.40
2023-05-08T20:51:06.449Z,14.30
2023-05-08T20:53:34.471Z,14.30
2023-05-08T20:56:06.210Z,14.40
2023-05-08T20:58:34.579Z,14.30
2023-05-08T21:01:02.917Z,14.40
2023-05-08T21:03:31.070Z,14.30
2023-05-08T21:05:58.881Z,14.30
2023-05-08T21:08:26.873Z,14.30
2023-05-08T21:10:54.649Z,14.40
2023-05-08T21:13:22.872Z,14.40
2023-05-08T21:15:51.238Z,14.40
2023-05-08T21:18:19.449Z,14.30
2023-05-08T21:20:50.361Z,14.30
2023-05-08T21:24:49.058Z,14.30
2023-05-08T21:27:17.705Z,14.30
2023-05-08T21:29:47.777Z,14.30
2023-05-08T21:32:16.023Z,14.20
2023-05-08T21:34:43.798Z,14.30
2023-05-08T21:37:14.117Z,14.30
2023-05-08T21:39:42.302Z,14.30
2023-05-08T21:42:11.313Z,14.30
2023-05-08T21:44:41.424Z,14.30
2023-05-08T21:47:09.527Z,14.20
2023-05-08T21:49:37.662Z,14.20
2023-05-08T21:52:05.971Z,14.20
2023-05-08T21:54:33.887Z,14.20
2023-05-08T21:57:01.997Z,14.20
2023-05-08T21:59:29.752Z,14.10
2023-05-08T22:01:57.869Z,14.20
2023-05-08T22:04:25.722Z,14.20
2023-05-08T22:06:53.985Z,14.10
2023-05-08T22:09:21.744Z,14.20
2023-05-08T22:11:51.886Z,14.20
2023-05-08T22:14:19.625Z,14.20
2023-05-08T22:16:47.640Z,14.20
2023-05-08T22:19:15.567Z,14.20
2023-05-08T22:21:43.630Z,14.20
2023-05-08T22:24:11.339Z,14.20
2023-05-08T22:26:39.656Z,14.20
2023-05-08T22:29:07.452Z,14.20
2023-05-08T22:31:35.592Z,14.20
2023-05-08T22:34:03.439Z,14.20
2023-05-08T22:36:32.617Z,14.20
2023-05-08T22:39:01.141Z,14.20
2023-05-08T22:41:30.136Z,14.20
2023-05-08T22:43:58.275Z,14.20
2023-05-08T22:46:26.565Z,14.20
2023-05-08T22:48:54.539Z,14.20
2023-05-08T22:51:22.839Z,14.30
2023-05-08T22:53:50.756Z,14.30
2023-05-08T22:56:19.084Z,14.30
2023-05-08T22:58:46.861Z,14.30
2023-05-08T23:01:17.348Z,14.30
2023-05-08T23:03:47.958Z,14.30
2023-05-08T23:06:16.034Z,14.30
2023-05-08T23:08:43.843Z,14.30
2023-05-08T23:11:11.938Z,14.30
2023-05-08T23:13:39.955Z,14.30
2023-05-08T23:16:10.507Z,14.30
2023-05-08T23:18:38.944Z,14.30
2023-05-08T23:21:08.106Z,14.30
2023-05-08T23:23:36.041Z,14.30
2023-05-08T23:26:05.254Z,14.30
2023-05-08T23:28:36.801Z,14.30
2023-05-08T23:31:07.713Z,14.30
2023-05-08T23:33:35.629Z,14.40
2023-05-08T23:36:03.803Z,14.40
2023-05-08T23:38:31.695Z,14.40
2023-05-08T23:40:59.766Z,14.40
2023-05-08T23:43:27.615Z,14.40
2023-05-08T23:45:55.779Z,14.40
2023-05-08T23:48:25.843Z,14.40
2023-05-08T23:50:56.331Z,14.40
2023-05-08T23:53:24.146Z,14.40
2023-05-08T23:55:52.486Z,14.40
2023-05-08T23:58:20.344Z,14.40
